createdAt,value
2022-11-05T00:01:21.084Z,99813.56
2022-11-05T00:02:41.982Z,99816.09
2022-11-05T00:04:03.014Z,99817.19
2022-11-05T00:05:24.396Z,99828.19
2022-11-05T00:06:45.519Z,99822.09
2022-11-05T00:08:10.414Z,99823.78
2022-11-05T00:09:30.560Z,99826.78
2022-11-05T00:10:36.077Z,99827.63
2022-11-05T00:11:57.099Z,99833.13
2022-11-05T00:13:18.360Z,99833.41
2022-11-05T00:14:55.861Z,99832.59
2022-11-05T00:16:16.548Z,99832.59
2022-11-05T00:17:18.757Z,99837.25
2022-11-05T00:18:21.142Z,99831.72
2022-11-05T00:19:23.459Z,99840.00
2022-11-05T00:20:25.737Z,99837.25
2022-11-05T00:21:46.446Z,99841.94
2022-11-05T00:23:07.639Z,99838.34
2022-11-05T00:24:28.863Z,99840.00
2022-11-05T00:25:31.276Z,99841.94
2022-11-05T00:26:34.632Z,99842.75
2022-11-05T00:27:36.900Z,99835.34
2022-11-05T00:28:43.946Z,99845.50
2022-11-05T00:29:46.391Z,99844.41
2022-11-05T00:30:49.066Z,99846.34
2022-11-05T00:31:51.331Z,99852.69
2022-11-05T00:32:53.935Z,99847.19
2022-11-05T00:33:56.240Z,99846.34
2022-11-05T00:34:58.683Z,99841.41
2022-11-05T00:36:03.008Z,99838.66
2022-11-05T00:37:05.353Z,99841.41
2022-11-05T00:38:07.628Z,99845.81
2022-11-05T00:39:09.952Z,99846.91
2022-11-05T00:40:13.668Z,99840.31
2022-11-05T00:41:15.926Z,99844.16
2022-11-05T00:42:37.083Z,99845.00
2022-11-05T00:43:57.862Z,99842.25
2022-11-05T00:45:03.071Z,99854.09
2022-11-05T00:46:05.532Z,99849.41
2022-11-05T00:47:26.537Z,99847.50
2022-11-05T00:48:47.751Z,99853.81
2022-11-05T00:49:49.961Z,99856.56
2022-11-05T00:50:52.169Z,99854.91
2022-11-05T00:52:17.265Z,99855.75
2022-11-05T00:53:19.715Z,99855.75
2022-11-05T00:54:22.507Z,99862.09
2022-11-05T00:55:28.832Z,99857.66
2022-11-05T00:56:31.074Z,99854.91
2022-11-05T00:57:33.264Z,99872.28
2022-11-05T00:58:35.550Z,99865.94
2022-11-05T00:59:40.795Z,99876.94
2022-11-05T01:00:55.465Z,99867.59
2022-11-05T01:01:57.835Z,99875.88
2022-11-05T01:03:02.281Z,99876.72
2022-11-05T01:04:04.792Z,99865.69
2022-11-05T01:05:07.352Z,99873.97
2022-11-05T01:06:11.135Z,99876.72
2022-11-05T01:07:13.371Z,99871.19
2022-11-05T01:08:17.660Z,99876.72
2022-11-05T01:09:19.837Z,99873.13
2022-11-05T01:10:22.927Z,99875.59
2022-11-05T01:11:34.407Z,99881.09
2022-11-05T01:12:36.695Z,99879.47
2022-11-05T01:13:40.078Z,99876.72
2022-11-05T01:14:42.433Z,99875.59
2022-11-05T01:15:45.076Z,99883.03
2022-11-05T01:16:47.405Z,99875.59
2022-11-05T01:17:51.526Z,99874.78
2022-11-05T01:18:53.986Z,99876.72
2022-11-05T01:19:56.336Z,99872.84
2022-11-05T01:20:58.695Z,99879.19
2022-11-05T01:22:00.956Z,99881.09
2022-11-05T01:23:04.666Z,99879.19
2022-11-05T01:24:10.843Z,99880.03
2022-11-05T01:25:13.384Z,99874.50
2022-11-05T01:26:18.777Z,99882.50
2022-11-05T01:27:20.957Z,99874.50
2022-11-05T01:28:23.323Z,99880.88
2022-11-05T01:29:25.579Z,99888.03
2022-11-05T01:30:28.083Z,99884.44
2022-11-05T01:31:30.418Z,99888.88
2022-11-05T01:32:32.817Z,99889.13
2022-11-05T01:33:35.112Z,99892.72
2022-11-05T01:37:22.312Z,99902.66
2022-11-05T01:38:24.527Z,99905.41
2022-11-05T01:39:27.103Z,99899.03
2022-11-05T01:40:29.344Z,99905.66
2022-11-05T01:41:33.789Z,99909.25
2022-11-05T01:42:36.104Z,99910.34
2022-11-05T01:43:54.700Z,99903.16
2022-11-05T01:45:24.808Z,99911.44
2022-11-05T01:46:33.941Z,99919.69
2022-11-05T01:47:48.442Z,99913.09
2022-11-05T01:48:54.431Z,99919.69
2022-11-05T01:50:03.025Z,99917.19
2022-11-05T01:51:09.354Z,99920.53
2022-11-05T01:52:11.694Z,99926.31
2022-11-05T01:53:55.637Z,99929.09
2022-11-05T01:54:58.938Z,99929.91
2022-11-05T01:56:07.053Z,99930.97
2022-11-05T01:57:10.931Z,99924.66
2022-11-05T01:58:19.154Z,99935.69
2022-11-05T01:59:27.203Z,99934.81
2022-11-05T02:00:29.538Z,99932.06
2022-11-05T02:01:32.210Z,99934.00
2022-11-05T02:02:34.769Z,99931.25
2022-11-05T02:03:37.424Z,99932.91
2022-11-05T02:04:45.452Z,99934.81
2022-11-05T02:05:49.758Z,99941.19
2022-11-05T02:06:53.262Z,99938.44
2022-11-05T02:07:56.082Z,99943.94
2022-11-05T02:09:18.121Z,99938.44
2022-11-05T02:10:21.411Z,99942.00
2022-11-05T02:11:23.655Z,99941.19
2022-11-05T02:12:29.022Z,99938.44
2022-11-05T02:13:31.387Z,99945.63
2022-11-05T02:14:33.613Z,99945.63
2022-11-05T02:15:45.487Z,99938.44
2022-11-05T02:17:04.499Z,99937.34
2022-11-05T02:18:29.001Z,99936.50
2022-11-05T02:20:09.795Z,99932.91
2022-11-05T02:21:37.952Z,99942.00
2022-11-05T02:23:01.106Z,99936.50
2022-11-05T02:24:39.763Z,99939.25
2022-11-05T02:26:08.697Z,99948.38
2022-11-05T02:27:41.454Z,99945.84
2022-11-05T02:29:22.311Z,99949.72
2022-11-05T02:30:47.087Z,99946.13
2022-11-05T02:31:58.063Z,99951.63
2022-11-05T02:33:38.039Z,99947.25
2022-11-05T02:34:50.227Z,99953.84
2022-11-05T02:36:22.272Z,99960.16
2022-11-05T02:37:30.224Z,99958.50
2022-11-05T02:38:44.706Z,99967.63
2022-11-05T02:39:52.015Z,99964.84
2022-11-05T02:41:03.436Z,99963.19
2022-11-05T02:42:25.215Z,99965.13
2022-11-05T02:43:47.945Z,99965.13
2022-11-05T02:45:09.139Z,99967.88
2022-11-05T02:46:26.918Z,99970.63
2022-11-05T02:47:32.195Z,99963.44
2022-11-05T02:48:40.793Z,99965.13
2022-11-05T02:49:59.765Z,99967.88
2022-11-05T02:51:13.955Z,99966.22
2022-11-05T02:52:32.375Z,99969.78
2022-11-05T02:53:42.243Z,99974.22
2022-11-05T02:55:03.587Z,99967.03
2022-11-05T02:56:20.942Z,99965.13
2022-11-05T02:57:23.188Z,99965.94
2022-11-05T02:58:29.031Z,99967.88
2022-11-05T02:59:31.485Z,99971.44
2022-11-05T03:00:57.682Z,99974.22
2022-11-05T03:02:01.882Z,99981.66
2022-11-05T03:03:06.227Z,99974.22
2022-11-05T03:04:11.261Z,99971.44
2022-11-05T03:05:13.687Z,99974.22
2022-11-05T03:06:51.831Z,99980.53
2022-11-05T03:08:09.654Z,99986.06
2022-11-05T03:09:46.047Z,99987.16
2022-11-05T03:11:13.699Z,99990.75
2022-11-05T03:12:19.605Z,99985.22
2022-11-05T03:13:26.747Z,99988.00
2022-11-05T03:15:04.949Z,99993.50
2022-11-05T03:16:50.090Z,99992.69
2022-11-05T03:18:24.127Z,99999.28
2022-11-05T03:19:39.178Z,100005.59
2022-11-05T03:20:50.376Z,100002.84
2022-11-05T03:21:59.516Z,100006.69
2022-11-05T03:23:25.711Z,100007.81
2022-11-05T03:24:37.573Z,100000.63
2022-11-05T03:25:51.686Z,100005.88
2022-11-05T03:27:00.675Z,100002.31
2022-11-05T03:28:07.507Z,100002.31
2022-11-05T03:29:16.621Z,100007.81
2022-11-05T03:30:19.180Z,100007.81
2022-11-05T03:31:23.677Z,100010.56
2022-11-05T03:32:30.697Z,100007.81
2022-11-05T03:33:36.640Z,100007.81
2022-11-05T03:34:50.212Z,100010.56
2022-11-05T03:35:55.716Z,100011.13
2022-11-05T03:37:06.399Z,100010.31
2022-11-05T03:38:14.675Z,100009.44
2022-11-05T03:39:46.010Z,100013.88
2022-11-05T03:40:52.090Z,100012.78
2022-11-05T03:43:14.565Z,100016.63
2022-11-05T03:44:24.488Z,100009.44
2022-11-05T03:45:33.486Z,100006.47
2022-11-05T03:46:44.405Z,100013.88
2022-11-05T03:47:50.561Z,100008.38
2022-11-05T03:48:58.607Z,100017.47
2022-11-05T03:50:41.255Z,100016.63
2022-11-05T03:52:02.774Z,100020.25
2022-11-05T03:53:21.998Z,100014.72
2022-11-05T03:54:24.620Z,100021.06
2022-11-05T03:55:40.205Z,100020.25
2022-11-05T03:57:04.457Z,100032.06
2022-11-05T03:58:07.847Z,100030.16
2022-11-05T03:59:14.145Z,100023.00
2022-11-05T04:00:16.632Z,100024.63
2022-11-05T04:01:18.972Z,100033.16
2022-11-05T04:02:25.987Z,100035.66
2022-11-05T04:03:36.226Z,100034.84
2022-11-05T04:04:39.971Z,100028.50
2022-11-05T04:05:42.281Z,100038.41
2022-11-05T04:07:03.058Z,100040.63
2022-11-05T04:08:24.433Z,100038.69
2022-11-05T04:09:45.273Z,100048.88
2022-11-05T04:11:06.179Z,100056.06
2022-11-05T04:12:30.115Z,100050.78
2022-11-05T04:13:33.186Z,100059.91
2022-11-05T04:14:37.934Z,100062.41
2022-11-05T04:15:58.871Z,100068.16
2022-11-05T04:17:07.198Z,100061.81
2022-11-05T04:18:09.433Z,100073.69
2022-11-05T04:19:14.224Z,100070.06
2022-11-05T04:20:35.949Z,100065.41
2022-11-05T04:21:56.601Z,100069.25
2022-11-05T04:23:22.497Z,100071.19
2022-11-05T04:24:24.703Z,100076.69
2022-11-05T04:25:26.888Z,100079.47
2022-11-05T04:26:29.143Z,100079.47
2022-11-05T04:27:31.607Z,100076.69
2022-11-05T04:28:53.752Z,100080.53
2022-11-05T04:30:14.842Z,100086.06
2022-11-05T04:31:17.052Z,100090.47
2022-11-05T04:32:19.295Z,100092.38
2022-11-05T04:33:21.585Z,100089.63
2022-11-05T04:34:24.164Z,100087.72
2022-11-05T04:35:32.224Z,100090.47
2022-11-05T04:36:36.854Z,100087.97
2022-11-05T04:37:39.059Z,100086.06
2022-11-05T04:38:41.309Z,100083.31
2022-11-05T04:39:43.519Z,100088.81
2022-11-05T04:40:46.792Z,100088.81
2022-11-05T04:41:49.184Z,100093.25
2022-11-05T04:42:51.388Z,100093.25
2022-11-05T04:43:53.629Z,100094.31
2022-11-05T04:44:58.445Z,100093.47
2022-11-05T04:46:03.505Z,100094.06
2022-11-05T04:47:08.305Z,100100.66
2022-11-05T04:48:11.006Z,100098.97
2022-11-05T04:49:13.261Z,100104.25
2022-11-05T04:50:15.649Z,100108.09
2022-11-05T04:51:17.989Z,100108.09
2022-11-05T04:52:20.384Z,100110.84
2022-11-05T04:53:23.519Z,100103.41
2022-11-05T04:54:31.812Z,100105.34
2022-11-05T04:55:33.997Z,100107.25
2022-11-05T04:56:36.259Z,100103.41
2022-11-05T04:57:38.602Z,100110.84
2022-11-05T04:58:42.377Z,100111.69
2022-11-05T04:59:44.662Z,100110.84
2022-11-05T05:00:49.811Z,100110.84
2022-11-05T05:01:53.410Z,100108.91
2022-11-05T05:02:55.658Z,100110.84
2022-11-05T05:03:57.822Z,100108.09
2022-11-05T05:05:00.040Z,100106.16
2022-11-05T05:06:03.921Z,100107.25
2022-11-05T05:07:06.475Z,100106.44
2022-11-05T05:08:09.028Z,100109.19
2022-11-05T05:09:11.240Z,100109.19
2022-11-05T05:10:13.525Z,100106.44
2022-11-05T05:11:18.246Z,100106.44
2022-11-05T05:12:21.238Z,100108.09
2022-11-05T05:13:23.420Z,100111.94
2022-11-05T05:14:26.203Z,100108.38
2022-11-05T05:15:28.445Z,100111.94
2022-11-05T05:16:31.501Z,100113.88
2022-11-05T05:17:33.763Z,100109.44
2022-11-05T05:18:36.200Z,100110.25
2022-11-05T05:19:57.221Z,100116.38
2022-11-05T05:21:18.574Z,100116.63
2022-11-05T05:22:20.881Z,100119.63
2022-11-05T05:23:23.216Z,100124.31
2022-11-05T05:24:28.157Z,100124.31
2022-11-05T05:25:30.968Z,100124.56
2022-11-05T05:26:33.250Z,100122.63
2022-11-05T05:27:35.445Z,100119.88
2022-11-05T05:28:37.659Z,100122.91
2022-11-05T05:29:39.859Z,100125.66
2022-11-05T05:30:42.031Z,100125.91
2022-11-05T05:31:50.183Z,100125.91
2022-11-05T05:32:52.542Z,100130.56
2022-11-05T05:33:55.171Z,100131.41
2022-11-05T05:34:57.428Z,100134.19
2022-11-05T05:36:00.235Z,100134.44
2022-11-05T05:37:02.490Z,100132.75
2022-11-05T05:38:04.688Z,100132.75
2022-11-05T05:39:08.377Z,100142.94
2022-11-05T05:40:11.390Z,100147.63
2022-11-05T05:41:19.825Z,100145.94
2022-11-05T05:42:30.654Z,100148.72
2022-11-05T05:43:34.075Z,100158.91
2022-11-05T05:44:36.321Z,100148.97
2022-11-05T05:45:39.380Z,100149.78
2022-11-05T05:46:41.607Z,100156.97
2022-11-05T05:47:43.883Z,100152.81
2022-11-05T05:48:50.233Z,100155.56
2022-11-05T05:49:52.551Z,100158.56
2022-11-05T05:50:54.842Z,100156.66
2022-11-05T05:51:57.579Z,100161.34
2022-11-05T05:52:59.770Z,100163.00
2022-11-05T05:54:08.316Z,100171.53
2022-11-05T05:55:12.757Z,100165.16
2022-11-05T05:56:20.615Z,100162.41
2022-11-05T05:57:22.941Z,100166.28
2022-11-05T05:58:27.086Z,100165.16
2022-11-05T05:59:29.402Z,100170.69
2022-11-05T06:00:37.797Z,100173.44
2022-11-05T06:01:40.734Z,100174.53
2022-11-05T06:02:43.316Z,100176.19
2022-11-05T06:03:45.715Z,100175.38
2022-11-05T06:04:47.902Z,100169.84
2022-11-05T06:05:50.162Z,100175.38
2022-11-05T06:07:00.281Z,100170.94
2022-11-05T06:08:03.089Z,100176.44
2022-11-05T06:09:05.326Z,100173.69
2022-11-05T06:10:07.820Z,100184.72
2022-11-05T06:11:10.236Z,100184.72
2022-11-05T06:12:12.626Z,100180.28
2022-11-05T06:13:14.795Z,100182.81
2022-11-05T06:14:19.351Z,100185.78
2022-11-05T06:15:24.325Z,100186.66
2022-11-05T06:16:27.796Z,100183.03
2022-11-05T06:17:30.038Z,100193.81
2022-11-05T06:18:35.811Z,100184.97
2022-11-05T06:19:38.094Z,100183.03
2022-11-05T06:20:40.332Z,100186.66
2022-11-05T06:21:45.099Z,100191.06
2022-11-05T06:23:02.625Z,100193.81
2022-11-05T06:24:04.980Z,100197.66
2022-11-05T06:25:08.338Z,100193.25
2022-11-05T06:26:14.017Z,100196.00
2022-11-05T06:27:16.242Z,100193.25
2022-11-05T06:28:18.414Z,100193.25
2022-11-05T06:29:28.241Z,100191.56
2022-11-05T06:30:30.551Z,100197.06
2022-11-05T06:31:32.699Z,100197.94
2022-11-05T06:32:35.476Z,100203.44
2022-11-05T06:33:38.355Z,100197.06
2022-11-05T06:34:40.573Z,100201.50
2022-11-05T06:35:42.788Z,100197.06
2022-11-05T06:36:47.819Z,100197.06
2022-11-05T06:37:50.038Z,100205.34
2022-11-05T06:38:52.330Z,100208.09
2022-11-05T06:39:57.188Z,100207.00
2022-11-05T06:41:00.481Z,100214.44
2022-11-05T06:42:17.756Z,100222.72
2022-11-05T06:43:20.851Z,100224.63
2022-11-05T06:44:23.130Z,100228.22
2022-11-05T06:45:25.334Z,100225.69
2022-11-05T06:46:27.625Z,100232.06
2022-11-05T06:47:29.913Z,100234.81
2022-11-05T06:48:32.163Z,100233.97
2022-11-05T06:49:34.442Z,100240.88
2022-11-05T06:50:36.663Z,100245.56
2022-11-05T06:51:38.933Z,100240.06
2022-11-05T06:52:41.479Z,100242.81
2022-11-05T06:53:43.765Z,100246.41
2022-11-05T06:54:45.985Z,100251.91
2022-11-05T06:55:48.252Z,100249.16
2022-11-05T06:56:50.426Z,100258.28
2022-11-05T06:57:52.958Z,100251.69
2022-11-05T06:58:55.215Z,100258.84
2022-11-05T07:00:02.270Z,100258.84
2022-11-05T07:01:10.469Z,100261.38
2022-11-05T07:02:13.856Z,100267.69
2022-11-05T07:03:18.701Z,100270.19
2022-11-05T07:04:20.967Z,100262.75
2022-11-05T07:05:23.906Z,100263.59
2022-11-05T07:06:27.413Z,100268.03
2022-11-05T07:07:29.601Z,100260.59
2022-11-05T07:08:39.055Z,100265.03
2022-11-05T07:09:43.271Z,100268.34
2022-11-05T07:10:45.467Z,100272.78
2022-11-05T07:11:47.747Z,100266.44
2022-11-05T07:12:53.148Z,100279.69
2022-11-05T07:13:58.359Z,100278.88
2022-11-05T07:15:00.621Z,100282.47
2022-11-05T07:16:02.921Z,100281.38
2022-11-05T07:17:05.195Z,100283.06
2022-11-05T07:18:07.683Z,100298.50
2022-11-05T07:19:10.005Z,100306.50
2022-11-05T07:20:15.113Z,100301.81
2022-11-05T07:21:17.291Z,100301.81
2022-11-05T07:22:19.496Z,100308.19
2022-11-05T07:23:22.609Z,100316.19
2022-11-05T07:24:24.892Z,100315.34
2022-11-05T07:25:27.123Z,100312.38
2022-11-05T07:26:34.695Z,100315.94
2022-11-05T07:27:40.430Z,100319.78
2022-11-05T07:28:45.253Z,100323.94
2022-11-05T07:29:50.348Z,100325.63
2022-11-05T07:30:52.809Z,100319.28
2022-11-05T07:31:55.115Z,100328.94
2022-11-05T07:32:57.400Z,100331.69
2022-11-05T07:33:59.700Z,100332.56
2022-11-05T07:35:01.898Z,100330.63
2022-11-05T07:36:04.334Z,100334.22
2022-11-05T07:37:06.724Z,100342.25
2022-11-05T07:38:08.987Z,100343.06
2022-11-05T07:39:11.212Z,100343.06
2022-11-05T07:40:16.013Z,100346.41
2022-11-05T07:41:18.451Z,100344.47
2022-11-05T07:42:20.617Z,100344.47
2022-11-05T07:43:22.849Z,100344.81
2022-11-05T07:44:25.125Z,100338.47
2022-11-05T07:45:29.767Z,100350.34
2022-11-05T07:46:32.068Z,100347.31
2022-11-05T07:47:37.086Z,100343.47
2022-11-05T07:48:39.284Z,100345.16
2022-11-05T07:49:41.488Z,100351.50
2022-11-05T07:50:43.714Z,100351.25
2022-11-05T07:51:46.088Z,100351.00
2022-11-05T07:52:48.827Z,100346.56
2022-11-05T07:53:51.037Z,100351.00
2022-11-05T07:54:53.283Z,100355.41
2022-11-05T07:55:57.283Z,100352.44
2022-11-05T07:56:59.518Z,100350.50
2022-11-05T07:58:01.826Z,100358.50
2022-11-05T07:59:06.556Z,100349.16
2022-11-05T08:00:11.302Z,100344.72
2022-11-05T08:01:14.784Z,100352.72
2022-11-05T08:02:17.331Z,100356.34
2022-11-05T08:03:20.423Z,100350.56
2022-11-05T08:04:22.999Z,100348.38
2022-11-05T08:05:25.455Z,100348.38
2022-11-05T08:06:27.676Z,100350.06
2022-11-05T08:07:29.930Z,100356.16
2022-11-05T08:08:32.255Z,100352.31
2022-11-05T08:09:34.656Z,100355.91
2022-11-05T08:10:38.045Z,100357.56
2022-11-05T08:11:40.529Z,100360.91
2022-11-05T08:12:50.144Z,100355.16
2022-11-05T08:13:52.343Z,100359.56
2022-11-05T08:14:54.545Z,100364.84
2022-11-05T08:15:57.965Z,100368.16
2022-11-05T08:17:00.198Z,100370.66
2022-11-05T08:18:18.909Z,100374.00
2022-11-05T08:19:21.108Z,100375.44
2022-11-05T08:20:23.300Z,100368.84
2022-11-05T08:21:25.556Z,100368.56
2022-11-05T08:22:27.722Z,100373.56
2022-11-05T08:23:31.416Z,100374.97
2022-11-05T08:24:33.620Z,100378.59
2022-11-05T08:25:35.904Z,100376.41
2022-11-05T08:26:40.329Z,100373.16
2022-11-05T08:27:42.564Z,100370.69
2022-11-05T08:28:44.976Z,100369.34
2022-11-05T08:29:47.218Z,100374.38
2022-11-05T08:30:51.139Z,100372.75
2022-11-05T08:31:53.378Z,100374.19
2022-11-05T08:33:04.085Z,100382.78
2022-11-05T08:34:06.311Z,100380.31
2022-11-05T08:35:08.744Z,100382.31
2022-11-05T08:36:10.935Z,100385.41
2022-11-05T08:37:13.087Z,100386.84
2022-11-05T08:38:19.812Z,100390.50
2022-11-05T08:39:22.076Z,100386.13
2022-11-05T08:40:26.223Z,100386.47
2022-11-05T08:41:28.557Z,100386.50
2022-11-05T08:42:33.016Z,100392.91
2022-11-05T08:43:35.253Z,100387.72
2022-11-05T08:44:37.417Z,100389.47
2022-11-05T08:45:41.073Z,100391.41
2022-11-05T08:46:43.336Z,100388.72
2022-11-05T08:47:45.526Z,100393.22
2022-11-05T08:48:47.787Z,100393.25
2022-11-05T08:49:50.001Z,100395.00
2022-11-05T08:50:52.275Z,100397.53
2022-11-05T08:51:54.513Z,100393.16
2022-11-05T08:52:57.243Z,100397.06
2022-11-05T08:53:59.423Z,100396.28
2022-11-05T08:55:01.659Z,100393.56
2022-11-05T08:56:03.897Z,100411.00
2022-11-05T08:57:06.175Z,100407.72
2022-11-05T08:58:17.756Z,100404.19
2022-11-05T08:59:20.057Z,100410.03
2022-11-05T09:00:22.278Z,100415.88
2022-11-05T09:01:27.011Z,100412.28
2022-11-05T09:02:29.366Z,100414.78
2022-11-05T09:03:34.849Z,100405.13
2022-11-05T09:04:39.413Z,100405.44
2022-11-05T09:05:42.038Z,100412.38
2022-11-05T09:06:47.067Z,100411.00
2022-11-05T09:07:56.474Z,100417.13
2022-11-05T09:09:02.287Z,100417.94
2022-11-05T09:10:05.173Z,100413.03
2022-11-05T09:11:07.371Z,100411.91
2022-11-05T09:12:13.148Z,100413.31
2022-11-05T09:13:19.302Z,100420.78
2022-11-05T09:14:22.344Z,100418.56
2022-11-05T09:15:28.245Z,100423.59
2022-11-05T09:16:32.661Z,100416.38
2022-11-05T09:17:40.517Z,100426.91
2022-11-05T09:18:44.985Z,100419.47
2022-11-05T09:19:52.697Z,100416.69
2022-11-05T09:20:55.003Z,100420.84
2022-11-05T09:21:59.529Z,100420.31
2022-11-05T09:23:02.024Z,100422.00
2022-11-05T09:24:04.642Z,100419.81
2022-11-05T09:25:07.753Z,100421.19
2022-11-05T09:26:11.734Z,100419.56
2022-11-05T09:27:14.806Z,100428.41
2022-11-05T09:28:22.809Z,100424.00
2022-11-05T09:29:25.131Z,100425.16
2022-11-05T09:30:27.393Z,100431.81
2022-11-05T09:31:29.605Z,100423.56
2022-11-05T09:32:32.503Z,100433.53
2022-11-05T09:33:36.614Z,100432.75
2022-11-05T09:34:38.956Z,100422.50
2022-11-05T09:35:44.260Z,100428.94
2022-11-05T09:36:48.711Z,100426.75
2022-11-05T09:37:50.918Z,100420.94
2022-11-05T09:38:53.214Z,100423.22
2022-11-05T09:39:57.956Z,100430.16
2022-11-05T09:41:23.733Z,100431.59
2022-11-05T09:42:31.734Z,100426.09
2022-11-05T09:43:42.093Z,100429.72
2022-11-05T09:44:52.762Z,100426.69
2022-11-05T09:45:59.747Z,100420.59
2022-11-05T09:47:07.641Z,100419.81
2022-11-05T09:48:17.521Z,100424.50
2022-11-05T09:49:30.874Z,100424.22
2022-11-05T09:50:39.324Z,100430.34
2022-11-05T09:51:41.743Z,100427.00
2022-11-05T09:52:45.298Z,100432.03
2022-11-05T09:53:48.424Z,100424.25
2022-11-05T09:54:51.612Z,100433.13
2022-11-05T09:55:59.456Z,100430.88
2022-11-05T09:57:03.471Z,100432.56
2022-11-05T09:58:28.527Z,100435.94
2022-11-05T09:59:45.008Z,100431.72
2022-11-05T10:00:52.526Z,100441.72
2022-11-05T10:02:23.298Z,100441.69
2022-11-05T10:03:31.771Z,100443.66
2022-11-05T10:04:34.494Z,100441.16
2022-11-05T10:05:38.245Z,100443.34
2022-11-05T10:06:50.105Z,100446.41
2022-11-05T10:08:17.105Z,100445.00
2022-11-05T10:09:43.150Z,100444.44
2022-11-05T10:10:55.610Z,100442.22
2022-11-05T10:12:07.585Z,100442.75
2022-11-05T10:13:22.078Z,100447.75
2022-11-05T10:14:41.937Z,100451.34
2022-11-05T10:16:00.294Z,100450.25
2022-11-05T10:17:12.958Z,100449.13
2022-11-05T10:18:38.737Z,100442.44
2022-11-05T10:19:49.713Z,100444.41
2022-11-05T10:20:52.013Z,100443.00
2022-11-05T10:22:09.926Z,100449.38
2022-11-05T10:23:18.283Z,100448.56
2022-11-05T10:24:23.369Z,100446.91
2022-11-05T10:25:35.262Z,100440.53
2022-11-05T10:26:37.490Z,100448.00
2022-11-05T10:27:54.900Z,100449.16
2022-11-05T10:28:57.266Z,100449.69
2022-11-05T10:30:00.229Z,100443.59
2022-11-05T10:31:08.827Z,100456.66
2022-11-05T10:32:25.792Z,100460.53
2022-11-05T10:33:38.513Z,100458.91
2022-11-05T10:34:42.596Z,100466.94
2022-11-05T10:35:51.939Z,100460.53
2022-11-05T10:36:54.619Z,100460.53
2022-11-05T10:37:57.429Z,100471.38
2022-11-05T10:39:18.123Z,100463.06
2022-11-05T10:40:35.426Z,100464.16
2022-11-05T10:41:52.917Z,100463.88
2022-11-05T10:42:59.277Z,100462.50
2022-11-05T10:44:26.938Z,100465.25
2022-11-05T10:45:51.270Z,100471.63
2022-11-05T10:46:59.200Z,100468.03
2022-11-05T10:48:25.043Z,100471.63
2022-11-05T10:49:48.949Z,100467.47
2022-11-05T10:50:54.196Z,100465.00
2022-11-05T10:51:59.019Z,100473.03
2022-11-05T10:53:16.764Z,100463.91
2022-11-05T10:54:23.057Z,100470.31
2022-11-05T10:55:29.431Z,100464.47
2022-11-05T10:56:35.619Z,100465.88
2022-11-05T10:58:58.710Z,100460.31
2022-11-05T11:00:19.095Z,100460.88
2022-11-05T11:01:26.502Z,100455.59
2022-11-05T11:02:31.914Z,100474.22
2022-11-05T11:03:49.654Z,100467.81
2022-11-05T11:04:58.091Z,100473.38
2022-11-05T11:06:25.116Z,100467.00
2022-11-05T11:07:27.475Z,100479.78
2022-11-05T11:08:33.784Z,100477.81
2022-11-05T11:09:37.313Z,100476.69
2022-11-05T11:10:50.761Z,100476.41
2022-11-05T11:12:02.716Z,100478.09
2022-11-05T11:13:06.149Z,100478.66
2022-11-05T11:14:14.342Z,100466.16
2022-11-05T11:15:35.255Z,100461.13
2022-11-05T11:16:51.306Z,100470.84
2022-11-05T11:17:55.020Z,100473.34
2022-11-05T11:19:05.773Z,100473.91
2022-11-05T11:20:30.746Z,100468.06
2022-11-05T11:21:33.401Z,100476.69
2022-11-05T11:22:35.664Z,100474.44
2022-11-05T11:23:40.743Z,100476.66
2022-11-05T11:24:51.175Z,100472.50
2022-11-05T11:26:03.759Z,100480.25
2022-11-05T11:27:11.863Z,100476.66
2022-11-05T11:28:39.966Z,100469.13
2022-11-05T11:29:49.397Z,100482.22
2022-11-05T11:31:09.385Z,100491.66
2022-11-05T11:32:18.841Z,100489.97
2022-11-05T11:33:26.030Z,100486.38
2022-11-05T11:34:38.958Z,100489.44
2022-11-05T11:35:46.316Z,100486.09
2022-11-05T11:36:53.693Z,100488.06
2022-11-05T11:37:57.979Z,100486.38
2022-11-05T11:39:04.410Z,100490.00
2022-11-05T11:40:29.175Z,100491.38
2022-11-05T11:41:36.488Z,100485.00
2022-11-05T11:42:41.158Z,100481.38
2022-11-05T11:43:45.110Z,100478.59
2022-11-05T11:44:48.358Z,100474.19
2022-11-05T11:45:59.355Z,100471.13
2022-11-05T11:47:14.863Z,100468.34
2022-11-05T11:48:29.226Z,100477.78
2022-11-05T11:49:47.376Z,100483.34
2022-11-05T11:50:50.526Z,100478.88
2022-11-05T11:51:59.498Z,100474.47
2022-11-05T11:53:20.197Z,100481.94
2022-11-05T11:54:28.998Z,100482.25
2022-11-05T11:55:31.561Z,100480.28
2022-11-05T11:56:45.087Z,100477.78
2022-11-05T11:58:11.400Z,100479.75
2022-11-05T12:00:07.798Z,100487.50
2022-11-05T12:01:49.043Z,100486.13
2022-11-05T12:03:06.397Z,100485.59
2022-11-05T12:04:22.241Z,100491.41
2022-11-05T12:05:47.901Z,100488.09
2022-11-05T12:07:34.921Z,100488.63
2022-11-05T12:08:45.583Z,100492.78
2022-11-05T12:10:09.536Z,100491.44
2022-11-05T12:11:28.685Z,100488.91
2022-11-05T12:12:40.028Z,100487.81
2022-11-05T12:13:57.189Z,100490.88
2022-11-05T12:15:27.657Z,100490.56
2022-11-05T12:17:00.067Z,100489.19
2022-11-05T12:18:06.054Z,100495.28
2022-11-05T12:19:22.886Z,100493.91
2022-11-05T12:20:37.312Z,100494.47
2022-11-05T12:22:05.816Z,100495.84
2022-11-05T12:23:14.185Z,100495.84
2022-11-05T12:24:54.178Z,100488.91
2022-11-05T12:26:23.154Z,100492.50
2022-11-05T12:27:56.150Z,100490.53
2022-11-05T12:29:25.760Z,100479.47
2022-11-05T12:30:37.287Z,100481.97
2022-11-05T12:32:17.205Z,100480.84
2022-11-05T12:33:55.416Z,100484.16
2022-11-05T12:35:18.586Z,100486.63
2022-11-05T12:36:32.576Z,100483.59
2022-11-05T12:37:46.783Z,100485.28
2022-11-05T12:39:00.435Z,100485.78
2022-11-05T12:40:12.646Z,100483.59
2022-11-05T12:41:31.113Z,100491.63
2022-11-05T12:42:48.264Z,100496.88
2022-11-05T12:44:36.868Z,100491.03
2022-11-05T12:45:43.422Z,100494.34
2022-11-05T12:47:07.600Z,100496.59
2022-11-05T12:48:37.209Z,100494.91
2022-11-05T12:50:11.547Z,100499.06
2022-11-05T12:51:29.897Z,100505.13
2022-11-05T12:52:59.857Z,100500.13
2022-11-05T12:54:23.462Z,100503.47
2022-11-05T12:55:30.147Z,100508.44
2022-11-05T12:56:38.990Z,100499.56
2022-11-05T12:57:45.596Z,100502.59
2022-11-05T12:58:55.109Z,100495.66
2022-11-05T13:00:09.175Z,100499.56
2022-11-05T13:01:15.023Z,100492.63
2022-11-05T13:02:49.584Z,100488.41
2022-11-05T13:03:59.866Z,100498.66
2022-11-05T13:05:07.899Z,100490.63
2022-11-05T13:06:19.179Z,100492.81
2022-11-05T13:07:29.004Z,100501.13
2022-11-05T13:08:44.623Z,100496.72
2022-11-05T13:09:54.303Z,100492.25
2022-11-05T13:11:20.247Z,100491.69
2022-11-05T13:12:27.616Z,100495.31
2022-11-05T13:13:56.557Z,100497.22
2022-11-05T13:15:10.744Z,100496.41
2022-11-05T13:16:22.840Z,100496.41